This is the latest recevied weather packets stored in our database for station/object EA5DFV. If no packets are shown the sender has not sent any weather packets the latest 1 day(s).
| Time | Temp. | Humidity | Pressure | Rain* | Wind** | Luminosity | Snow |
|---|---|---|---|---|---|---|---|
| 1777979913 | 23.89° C | 44% | 1010.7 hPa | 0 mm | 0.45 m/s, 17° | 360 W/m² | - |
| 1777979611 | 23.89° C | 46% | 1010.8 hPa | 0 mm | 0.89 m/s, 17° | 373 W/m² | - |
| 1777979301 | 24.44° C | 50% | 1010.8 hPa | 0 mm | 2.24 m/s, 17° | 1134 W/m² | - |
| 1777979014 | 24.44° C | 50% | 1010.8 hPa | 0 mm | 0 m/s | 301 W/m² | - |
| 1777978707 | 24.44° C | 44% | 1010.9 hPa | 0 mm | 0.89 m/s, 22° | 276 W/m² | - |
| 1777978401 | 24.44° C | 52% | 1010.9 hPa | 0 mm | 0.89 m/s, 22° | 1172 W/m² | - |
| 1777978112 | 24.44° C | 54% | 1010.9 hPa | 0 mm | 1.34 m/s, 19° | 1085 W/m² | - |
| 1777977802 | 23.89° C | 56% | 1011 hPa | 0 mm | 1.34 m/s, 13° | 1132 W/m² | - |
| 1777977513 | 23.89° C | 54% | 1011 hPa | 0 mm | 0.45 m/s, 13° | 330 W/m² | - |
| 1777977207 | 23.89° C | 56% | 1010.9 hPa | 0 mm | 0.45 m/s, 13° | 271 W/m² | - |
| 1777976920 | 23.89° C | 57% | 1011 hPa | 0 mm | 0.45 m/s, 13° | 329 W/m² | - |
| 1777976610 | 23.89° C | 58% | 1011 hPa | 0 mm | 0.45 m/s, 13° | 1018 W/m² | - |
| 1777976304 | 23.33° C | 57% | 1011 hPa | 0 mm | 0.45 m/s, 13° | 919 W/m² | - |
| 1777975997 | 23.33° C | 61% | 1011.1 hPa | 0 mm | 0.89 m/s, 9° | 877 W/m² | - |
| 1777975707 | 23.33° C | 62% | 1011.1 hPa | 0 mm | 1.34 m/s, 5° | 872 W/m² | - |
| 1777975414 | 23.33° C | 62% | 1011.1 hPa | 0 mm | 0.45 m/s, 5° | 861 W/m² | - |
| 1777975107 | 23.33° C | 60% | 1011.2 hPa | 0 mm | 1.79 m/s, 5° | 849 W/m² | - |
| 1777974805 | 23.33° C | 64% | 1011.1 hPa | 0 mm | 0.45 m/s, 5° | 826 W/m² | - |
| 1777974498 | 22.78° C | 64% | 1011.1 hPa | 0 mm | 1.34 m/s, 5° | 842 W/m² | - |
| 1777974209 | 22.78° C | 64% | 1011.2 hPa | 0 mm | 1.34 m/s, 5° | 807 W/m² | - |
| 1777973899 | 22.78° C | 65% | 1011.2 hPa | 0 mm | 0.89 m/s, 21° | 779 W/m² | - |
| 1777973610 | 22.78° C | 68% | 1011.1 hPa | 0 mm | 0.89 m/s, 21° | 747 W/m² | - |
| 1777973307 | 22.78° C | 68% | 1011.2 hPa | 0 mm | 1.34 m/s, 21° | 758 W/m² | - |
| 1777973017 | 22.78° C | 68% | 1011.1 hPa | 0 mm | 0.89 m/s, 24° | 752 W/m² | - |
| 1777972707 | 22.22° C | 68% | 1011.1 hPa | 0 mm | 0.45 m/s, 17° | 759 W/m² | - |
* Rain latest hour (hover to see other rain measurements)
** Current wind speed in m/s (hover to see current wind gust speed)